Time;durP1;ratioP1;P1;durP2;ratioP2;P2;SDS_P1;SDS_P2;PMS_P1;PMS_P2;Temp;Humidity;BMP_temperature;BMP_pressure;BME280_temperature;BME280_humidity;BME280_pressure;Samples;Min_cycle;Max_cycle;Signal;HPM_P1;HPM_P2
2021/11/21 00:02:28;;;;;;;35.47;17.53;;;7.90;99.90;;;;;;4445830;28;658263;-69
2021/11/21 00:05:16;;;;;;;37.20;17.83;;;7.90;99.90;;;;;;4456685;28;657822;-69
2021/11/21 00:08:03;;;;;;;38.65;18.00;;;7.80;99.90;;;;;;4465610;28;657664;-69
2021/11/21 00:10:51;;;;;;;33.47;17.47;;;7.80;99.90;;;;;;4446240;28;657841;-69
2021/11/21 00:13:40;;;;;;;32.33;16.87;;;7.80;99.90;;;;;;4465125;28;658726;-68
2021/11/21 00:16:28;;;;;;;36.38;17.15;;;7.80;99.90;;;;;;4445021;28;658201;-69
2021/11/21 00:19:16;;;;;;;33.80;17.83;;;7.70;99.90;;;;;;4454278;28;657644;-70
2021/11/21 00:22:03;;;;;;;34.23;17.93;;;7.60;99.90;;;;;;4468557;28;658759;-69
2021/11/21 00:24:51;;;;;;;32.93;18.17;;;7.50;99.90;;;;;;4445667;28;657829;-69
2021/11/21 00:27:39;;;;;;;35.65;17.73;;;7.50;99.90;;;;;;4464192;28;658735;-70
2021/11/21 00:30:28;;;;;;;30.67;15.53;;;7.40;99.90;;;;;;4444710;28;657609;-68
2021/11/21 00:33:16;;;;;;;37.30;18.50;;;7.40;99.90;;;;;;4443531;28;657532;-70
2021/11/21 00:36:03;;;;;;;35.40;17.23;;;7.30;99.90;;;;;;4467303;28;658656;-69
2021/11/21 00:38:51;;;;;;;33.87;17.63;;;7.30;99.90;;;;;;4441065;28;657812;-69
2021/11/21 00:41:39;;;;;;;40.33;19.23;;;7.20;99.90;;;;;;4464008;28;658651;-69
2021/11/21 00:44:26;;;;;;;34.43;18.13;;;7.20;99.90;;;;;;4443717;28;657699;-68
2021/11/21 00:47:15;;;;;;;35.40;19.10;;;7.10;99.90;;;;;;4461446;28;658689;-69
2021/11/21 00:50:04;;;;;;;35.43;18.00;;;7.00;99.90;;;;;;4439641;28;658690;-69
2021/11/21 00:52:57;;;;;;;37.67;20.17;;;7.00;99.90;;;;;;4443534;28;657664;-69
2021/11/21 00:55:49;;;;;;;37.53;19.00;;;7.00;99.90;;;;;;4440721;28;659466;-69
2021/11/21 00:58:38;;;;;;;36.73;18.90;;;7.00;99.90;;;;;;4442357;28;657662;-69
2021/11/21 01:01:26;;;;;;;35.70;18.23;;;7.00;99.90;;;;;;4442352;28;657525;-70
2021/11/21 01:04:15;;;;;;;35.40;17.73;;;7.00;99.90;;;;;;4468162;28;658818;-69
2021/11/21 01:07:02;;;;;;;36.63;18.03;;;7.00;99.90;;;;;;4435447;28;659043;-69
2021/11/21 01:09:51;;;;;;;33.50;17.90;;;7.00;99.90;;;;;;4456616;28;657523;-70
2021/11/21 01:12:40;;;;;;;33.17;17.60;;;6.90;99.90;;;;;;4467982;28;658200;-69
2021/11/21 01:15:27;;;;;;;32.07;17.73;;;6.90;99.90;;;;;;4441568;28;658931;-69
2021/11/21 01:18:16;;;;;;;34.00;18.43;;;6.90;99.90;;;;;;4461024;28;657685;-68
2021/11/21 01:21:05;;;;;;;32.13;18.40;;;6.90;99.90;;;;;;4467357;28;658018;-69
2021/11/21 01:23:53;;;;;;;35.33;18.87;;;6.90;99.90;;;;;;4439084;28;658756;-71
2021/11/21 01:26:41;;;;;;;31.57;17.60;;;6.90;99.90;;;;;;4445582;28;658323;-70
2021/11/21 01:29:28;;;;;;;33.23;17.60;;;6.90;99.90;;;;;;4462601;28;658744;-69
2021/11/21 01:32:16;;;;;;;38.60;18.53;;;6.90;99.90;;;;;;4444667;28;658351;-69
2021/11/21 01:35:04;;;;;;;35.22;17.33;;;6.90;99.90;;;;;;4458781;28;658232;-69
2021/11/21 01:37:53;;;;;;;36.53;17.57;;;6.90;99.90;;;;;;4444378;28;658158;-69
2021/11/21 01:40:41;;;;;;;36.37;18.50;;;6.90;99.90;;;;;;4442522;28;658097;-69
2021/11/21 01:43:28;;;;;;;33.72;17.92;;;6.90;99.90;;;;;;4460371;28;658438;-69
2021/11/21 01:46:16;;;;;;;35.87;18.40;;;6.90;99.90;;;;;;4442393;28;657390;-69
2021/11/21 01:49:04;;;;;;;38.13;18.80;;;6.90;99.90;;;;;;4460182;28;658763;-69
2021/11/21 01:51:52;;;;;;;32.67;17.97;;;7.00;99.90;;;;;;4443290;28;657942;-69
2021/11/21 01:54:41;;;;;;;34.20;18.77;;;7.00;99.90;;;;;;4460043;28;657456;-69
2021/11/21 01:57:28;;;;;;;38.80;19.27;;;7.00;99.90;;;;;;4439147;28;658451;-69
2021/11/21 02:00:17;;;;;;;31.13;18.53;;;7.00;99.90;;;;;;4444936;28;657993;-70
2021/11/21 02:03:04;;;;;;;34.10;18.63;;;7.00;99.90;;;;;;4459735;28;658031;-69
2021/11/21 02:05:52;;;;;;;35.80;17.97;;;7.00;99.90;;;;;;4441197;28;658112;-69
2021/11/21 02:08:39;;;;;;;33.30;18.45;;;7.00;99.90;;;;;;4457466;28;658059;-68
2021/11/21 02:11:28;;;;;;;31.33;16.97;;;7.00;99.90;;;;;;4444074;28;657487;-69
2021/11/21 02:14:16;;;;;;;34.90;18.33;;;7.10;99.90;;;;;;4442562;28;658080;-69
2021/11/21 02:17:04;;;;;;;30.77;17.70;;;7.10;99.90;;;;;;4460031;28;658265;-69
2021/11/21 02:19:51;;;;;;;31.83;17.40;;;7.10;99.90;;;;;;4444160;28;657646;-69
2021/11/21 02:22:41;;;;;;;29.00;14.50;;;7.10;99.90;;;;;;4454805;28;658769;-69
2021/11/21 02:25:29;;;;;;;31.30;17.38;;;7.10;99.90;;;;;;4441121;28;658761;-69
2021/11/21 02:28:16;;;;;;;29.52;17.13;;;7.10;99.90;;;;;;4429466;28;657849;-69
2021/11/21 02:31:04;;;;;;;28.27;15.43;;;7.10;99.90;;;;;;4454618;28;658904;-69
2021/11/21 02:33:52;;;;;;;31.50;16.63;;;7.10;99.90;;;;;;4437907;28;658418;-70
2021/11/21 02:36:43;;;;;;;28.27;15.60;;;7.20;99.90;;;;;;4459366;28;658061;-68
2021/11/21 02:39:32;;;;;;;26.20;14.63;;;7.20;99.90;;;;;;4415489;28;657752;-69
2021/11/21 02:42:27;;;;;;;26.57;13.97;;;7.20;99.90;;;;;;4462041;28;657932;-69
2021/11/21 02:45:16;;;;;;;25.33;13.77;;;7.20;99.90;;;;;;4414739;28;657684;-69
2021/11/21 02:48:05;;;;;;;25.17;13.37;;;7.20;99.90;;;;;;4439937;28;657423;-69
2021/11/21 02:50:53;;;;;;;21.80;12.63;;;7.20;99.90;;;;;;4420068;28;659209;-69
2021/11/21 02:53:41;;;;;;;24.40;14.40;;;7.20;99.90;;;;;;4439948;28;657736;-70
2021/11/21 02:56:30;;;;;;;21.43;12.07;;;7.30;99.90;;;;;;4445860;28;658683;-69
2021/11/21 02:59:26;;;;;;;22.60;13.00;;;7.30;99.90;;;;;;4421369;28;658261;-69
2021/11/21 03:02:14;;;;;;;21.27;10.93;;;7.30;99.90;;;;;;4420991;28;657979;-70
2021/11/21 03:05:01;;;;;;;21.87;12.63;;;7.30;99.90;;;;;;4422643;28;657664;-69
2021/11/21 03:07:49;;;;;;;24.17;13.50;;;7.30;99.90;;;;;;4442982;28;658625;-69
2021/11/21 03:10:37;;;;;;;21.27;12.37;;;7.30;99.90;;;;;;4419824;28;658312;-69
2021/11/21 03:13:26;;;;;;;17.13;9.47;;;7.30;99.90;;;;;;4446998;28;658007;-68
2021/11/21 03:16:14;;;;;;;18.63;10.43;;;7.30;99.90;;;;;;4422080;28;657629;-70
2021/11/21 03:19:01;;;;;;;20.40;11.83;;;7.30;99.90;;;;;;4426150;28;657643;-69
2021/11/21 03:21:49;;;;;;;24.00;11.93;;;7.30;99.90;;;;;;4446744;28;658058;-69
2021/11/21 03:24:36;;;;;;;18.10;10.70;;;7.30;99.90;;;;;;4430819;28;658194;-69
2021/11/21 03:27:26;;;;;;;16.70;9.43;;;7.20;99.90;;;;;;4449979;28;658481;-69
2021/11/21 03:30:16;;;;;;;22.53;11.97;;;7.20;99.90;;;;;;4423160;28;657597;-70
2021/11/21 03:33:04;;;;;;;22.53;11.73;;;7.20;99.90;;;;;;4423478;28;657913;-69
2021/11/21 03:35:51;;;;;;;18.67;11.00;;;7.20;99.90;;;;;;4428398;28;658203;-69
2021/11/21 03:38:39;;;;;;;17.73;10.57;;;7.20;99.90;;;;;;4451551;28;657027;-69
2021/11/21 03:41:27;;;;;;;17.73;10.35;;;7.20;99.90;;;;;;4430366;28;657488;-69
2021/11/21 03:44:14;;;;;;;21.90;9.97;;;7.20;99.90;;;;;;4452074;28;657283;-69
2021/11/21 03:47:04;;;;;;;17.73;10.60;;;7.20;99.90;;;;;;4435987;28;657769;-69
2021/11/21 03:49:51;;;;;;;15.23;9.23;;;7.20;99.90;;;;;;4436724;28;657644;-69
2021/11/21 03:52:40;;;;;;;16.53;10.27;;;7.20;99.90;;;;;;4467467;28;657043;-69
2021/11/21 03:55:28;;;;;;;18.00;9.30;;;7.30;99.90;;;;;;4446028;28;658086;-69
2021/11/21 03:58:16;;;;;;;16.02;9.20;;;7.20;99.90;;;;;;4444804;28;656750;-70
2021/11/21 04:01:03;;;;;;;14.13;8.40;;;7.20;99.90;;;;;;4464022;28;657571;-69
2021/11/21 04:03:52;;;;;;;14.30;7.93;;;7.20;99.90;;;;;;4445535;28;656101;-69
2021/11/21 04:06:40;;;;;;;13.47;8.33;;;7.20;99.90;;;;;;4456506;28;657870;-68
2021/11/21 04:09:28;;;;;;;13.70;7.37;;;7.10;99.90;;;;;;4448019;28;658035;-69
2021/11/21 04:12:16;;;;;;;13.60;8.17;;;7.10;99.90;;;;;;4444161;28;657050;-69
2021/11/21 04:15:04;;;;;;;13.43;8.00;;;7.20;99.90;;;;;;4467452;28;657535;-69
2021/11/21 04:17:52;;;;;;;13.83;8.23;;;7.10;99.90;;;;;;4442736;28;656796;-69
2021/11/21 04:20:40;;;;;;;16.57;9.50;;;7.10;99.90;;;;;;4463405;28;656700;-69
2021/11/21 04:23:30;;;;;;;12.00;7.70;;;7.00;99.90;;;;;;4437109;28;656844;-69
2021/11/21 04:26:18;;;;;;;16.20;8.83;;;7.00;99.90;;;;;;4438063;28;658070;-69
2021/11/21 04:29:06;;;;;;;16.43;8.53;;;6.90;99.90;;;;;;4443348;28;656588;-70
2021/11/21 04:31:54;;;;;;;14.80;8.63;;;6.90;99.90;;;;;;4462291;28;658400;-69
2021/11/21 04:34:42;;;;;;;16.47;8.67;;;6.80;99.90;;;;;;4438335;28;656595;-69
2021/11/21 04:37:31;;;;;;;14.73;8.83;;;6.80;99.90;;;;;;4459902;28;657057;-69
2021/11/21 04:40:18;;;;;;;16.00;9.90;;;6.70;99.90;;;;;;4438352;28;656890;-69
2021/11/21 04:43:06;;;;;;;16.53;10.17;;;6.70;99.90;;;;;;4444625;28;657055;-69
2021/11/21 04:45:55;;;;;;;16.23;10.03;;;6.70;99.90;;;;;;4462999;28;659062;-70
2021/11/21 04:48:44;;;;;;;20.73;10.47;;;6.70;99.90;;;;;;4420627;28;657348;-69
2021/11/21 04:51:32;;;;;;;18.47;10.77;;;6.70;99.90;;;;;;4446344;28;657325;-69
2021/11/21 04:54:25;;;;;;;16.90;9.97;;;6.60;99.90;;;;;;4463684;28;657949;-69
2021/11/21 04:57:14;;;;;;;14.07;8.53;;;6.50;99.90;;;;;;4421586;28;657191;-68
2021/11/21 05:00:02;;;;;;;17.77;10.10;;;6.50;99.90;;;;;;4445799;28;657177;-69
2021/11/21 05:02:50;;;;;;;16.97;10.23;;;6.50;99.90;;;;;;4460012;28;658011;-69
2021/11/21 05:05:38;;;;;;;17.70;10.93;;;6.40;99.90;;;;;;4442566;28;658188;-69
2021/11/21 05:08:26;;;;;;;17.87;10.07;;;6.40;99.90;;;;;;4445291;28;657560;-68
2021/11/21 05:11:15;;;;;;;17.97;9.97;;;6.40;99.90;;;;;;4463395;28;658477;-70
2021/11/21 05:14:03;;;;;;;20.13;10.93;;;6.40;99.90;;;;;;4442536;28;657576;-69
2021/11/21 05:16:51;;;;;;;21.00;9.57;;;6.30;99.90;;;;;;4450700;28;657397;-70
2021/11/21 05:19:38;;;;;;;19.07;10.70;;;6.30;99.90;;;;;;4469632;28;657207;-68
2021/11/21 05:22:26;;;;;;;17.03;10.03;;;6.20;99.90;;;;;;4445204;28;657635;-69
2021/11/21 05:25:13;;;;;;;18.83;10.50;;;6.20;99.90;;;;;;4465132;28;658992;-68
2021/11/21 05:28:03;;;;;;;17.90;10.50;;;6.20;99.90;;;;;;4442799;28;657500;-69
2021/11/21 05:30:51;;;;;;;19.03;10.90;;;6.20;99.90;;;;;;4445597;28;658301;-69
2021/11/21 05:33:38;;;;;;;18.17;10.37;;;6.20;99.90;;;;;;4466051;28;657931;-70
2021/11/21 05:36:26;;;;;;;14.90;8.47;;;6.20;99.90;;;;;;4444021;28;657639;-70
2021/11/21 05:39:16;;;;;;;19.10;10.53;;;6.20;99.90;;;;;;4462472;28;657551;-70
2021/11/21 05:42:04;;;;;;;21.83;12.63;;;6.20;99.90;;;;;;4439336;28;658072;-69
2021/11/21 05:44:53;;;;;;;21.17;12.23;;;6.10;99.90;;;;;;4439612;28;658377;-68
2021/11/21 05:47:41;;;;;;;22.00;12.13;;;6.10;99.90;;;;;;4445566;28;657614;-69
2021/11/21 05:50:29;;;;;;;21.80;13.07;;;6.00;99.90;;;;;;4462834;28;658457;-69
2021/11/21 05:53:17;;;;;;;18.47;9.87;;;6.00;99.90;;;;;;4440077;28;657807;-69
2021/11/21 05:56:05;;;;;;;21.67;12.07;;;6.00;99.90;;;;;;4464954;28;656234;-69
2021/11/21 05:58:53;;;;;;;19.37;11.60;;;6.00;99.90;;;;;;4446518;28;658224;-69
2021/11/21 06:01:42;;;;;;;25.93;12.57;;;6.00;99.90;;;;;;4457735;28;657697;-69
2021/11/21 06:04:29;;;;;;;20.40;11.40;;;6.00;99.90;;;;;;4465039;28;657973;-69
2021/11/21 06:07:17;;;;;;;20.03;12.37;;;5.90;99.90;;;;;;4443320;28;658421;-69
2021/11/21 06:10:05;;;;;;;20.73;11.63;;;5.90;99.90;;;;;;4463455;28;658962;-68
2021/11/21 06:12:53;;;;;;;18.43;11.03;;;5.90;99.90;;;;;;4440992;28;658397;-68
2021/11/21 06:15:41;;;;;;;25.07;12.03;;;5.90;99.90;;;;;;4445492;28;658100;-70
2021/11/21 06:18:30;;;;;;;17.57;10.60;;;5.90;99.90;;;;;;4462195;28;658726;-68
2021/11/21 06:21:18;;;;;;;18.63;11.27;;;6.00;99.90;;;;;;4440755;28;658804;-68
2021/11/21 06:24:07;;;;;;;23.60;11.87;;;5.90;99.90;;;;;;4450442;28;657941;-70
2021/11/21 06:26:55;;;;;;;19.30;11.70;;;5.90;99.90;;;;;;4462221;28;657990;-69
2021/11/21 06:29:42;;;;;;;18.73;11.70;;;5.90;99.90;;;;;;4439308;28;659403;-68
2021/11/21 06:32:30;;;;;;;18.43;11.00;;;5.90;99.90;;;;;;4451791;28;657478;-70
2021/11/21 06:35:19;;;;;;;19.83;10.73;;;5.90;99.90;;;;;;4461523;28;657508;-69
2021/11/21 06:38:07;;;;;;;20.30;10.93;;;5.80;99.90;;;;;;4440898;28;658852;-69
2021/11/21 06:40:55;;;;;;;20.93;11.47;;;5.80;99.90;;;;;;4459528;28;658236;-69
2021/11/21 06:43:42;;;;;;;18.07;11.23;;;5.70;99.90;;;;;;4440895;28;659139;-68
2021/11/21 06:46:30;;;;;;;19.30;11.07;;;5.70;99.90;;;;;;4459392;28;657470;-68
2021/11/21 06:49:18;;;;;;;18.13;10.53;;;5.70;99.90;;;;;;4440259;28;658388;-69
2021/11/21 06:52:08;;;;;;;19.08;10.95;;;5.70;99.90;;;;;;4450111;28;657991;-70
2021/11/21 06:54:56;;;;;;;19.80;11.07;;;5.70;99.90;;;;;;4448522;28;657519;-70
2021/11/21 06:57:43;;;;;;;19.37;10.43;;;5.70;99.90;;;;;;4470460;28;657214;-69
2021/11/21 07:00:31;;;;;;;18.60;11.40;;;5.70;99.90;;;;;;4444480;28;657983;-69
2021/11/21 07:03:19;;;;;;;20.98;10.98;;;5.80;99.90;;;;;;4461010;28;659599;-69
2021/11/21 07:06:07;;;;;;;20.53;11.47;;;5.80;99.90;;;;;;4440471;28;657892;-69
2021/11/21 07:08:56;;;;;;;17.93;10.13;;;5.90;99.90;;;;;;4469350;28;657370;-69
2021/11/21 07:11:44;;;;;;;18.33;10.77;;;5.90;99.90;;;;;;4443385;28;658411;-69
2021/11/21 07:14:32;;;;;;;17.77;10.20;;;6.00;99.90;;;;;;4443244;28;658106;-69
2021/11/21 07:17:19;;;;;;;21.67;11.30;;;6.10;99.90;;;;;;4464116;28;658335;-68
2021/11/21 07:20:14;;;;;;;22.73;12.40;;;6.10;99.90;;;;;;4443223;28;657387;-69
2021/11/21 07:23:02;;;;;;;20.17;11.70;;;6.20;99.90;;;;;;4442892;28;658594;-69
2021/11/21 07:25:51;;;;;;;21.80;12.43;;;6.30;99.90;;;;;;4463067;28;657769;-69
2021/11/21 07:28:39;;;;;;;20.70;12.30;;;6.30;99.90;;;;;;4442591;28;658048;-69
2021/11/21 07:31:27;;;;;;;23.30;12.57;;;6.40;99.90;;;;;;4441239;28;657949;-69
2021/11/21 07:34:15;;;;;;;15.97;8.50;;;6.40;99.90;;;;;;4462630;28;658029;-69
2021/11/21 07:37:03;;;;;;;18.23;10.27;;;6.50;99.90;;;;;;4444273;28;658266;-69
2021/11/21 07:39:51;;;;;;;22.80;13.03;;;6.50;99.90;;;;;;4457925;28;657585;-70
2021/11/21 07:42:40;;;;;;;19.83;10.07;;;6.60;99.90;;;;;;4468632;28;658222;-70
2021/11/21 07:45:28;;;;;;;21.10;12.00;;;6.70;99.90;;;;;;4445792;28;658978;-68
2021/11/21 07:48:16;;;;;;;15.57;9.50;;;6.90;99.90;;;;;;4448421;28;657859;-69
2021/11/21 07:51:03;;;;;;;17.57;11.30;;;7.00;99.90;;;;;;4464528;28;657718;-69
2021/11/21 07:53:51;;;;;;;17.80;11.60;;;7.10;99.90;;;;;;4439300;28;657576;-69
2021/11/21 07:56:38;;;;;;;18.37;8.77;;;7.20;99.90;;;;;;4465447;28;658417;-69
2021/11/21 07:59:28;;;;;;;14.47;10.33;;;7.30;99.90;;;;;;4443324;28;656469;-69
2021/11/21 08:02:16;;;;;;;17.53;9.83;;;7.60;99.90;;;;;;4450956;28;657941;-70
2021/11/21 08:05:04;;;;;;;18.57;9.23;;;8.00;99.90;;;;;;4463750;28;657859;-69
2021/11/21 08:07:51;;;;;;;17.47;9.40;;;8.30;99.90;;;;;;4445740;28;656746;-69
2021/11/21 08:10:39;;;;;;;16.77;9.33;;;8.40;99.90;;;;;;4465910;28;657764;-70
2021/11/21 08:13:27;;;;;;;15.20;8.77;;;8.60;99.90;;;;;;4444199;28;656423;-69
2021/11/21 08:16:16;;;;;;;14.35;8.18;;;8.80;99.90;;;;;;4466080;28;656494;-69
2021/11/21 08:19:04;;;;;;;10.87;6.97;;;8.90;99.90;;;;;;4433699;28;656966;-69
2021/11/21 08:21:51;;;;;;;14.57;9.20;;;9.00;99.90;;;;;;4445843;28;657162;-68
2021/11/21 08:24:39;;;;;;;13.50;8.80;;;9.10;99.90;;;;;;4469821;28;656081;-69
2021/11/21 08:27:27;;;;;;;15.47;10.40;;;9.20;99.90;;;;;;4443757;28;656465;-68
2021/11/21 08:30:14;;;;;;;14.27;9.23;;;9.30;99.90;;;;;;4458864;28;657603;-68
2021/11/21 08:33:03;;;;;;;15.27;9.67;;;9.40;99.90;;;;;;4447241;28;656964;-68
2021/11/21 08:35:51;;;;;;;13.60;8.70;;;9.30;99.90;;;;;;4446390;28;656682;-69
2021/11/21 08:38:39;;;;;;;17.83;10.13;;;9.20;99.90;;;;;;4464402;28;657195;-70
2021/11/21 08:41:26;;;;;;;20.73;9.00;;;9.20;99.90;;;;;;4443477;28;657539;-69
2021/11/21 08:44:14;;;;;;;18.60;10.73;;;9.00;99.90;;;;;;4461599;28;657944;-68
2021/11/21 08:47:02;;;;;;;16.10;8.80;;;9.20;99.90;;;;;;4444725;28;658171;-69
2021/11/21 08:49:51;;;;;;;16.53;10.07;;;9.50;99.90;;;;;;4464538;28;656418;-69
2021/11/21 08:52:38;;;;;;;17.57;10.00;;;9.80;99.90;;;;;;4440584;28;658298;-69
2021/11/21 08:55:26;;;;;;;18.80;10.13;;;9.70;99.90;;;;;;4444910;28;657653;-69
2021/11/21 08:58:14;;;;;;;14.73;9.40;;;9.50;99.90;;;;;;4463639;28;657987;-68
2021/11/21 09:01:02;;;;;;;15.80;9.80;;;9.50;99.90;;;;;;4445060;28;657012;-67
2021/11/21 09:03:49;;;;;;;17.23;10.00;;;9.60;99.90;;;;;;4464372;28;656493;-69
2021/11/21 09:06:38;;;;;;;18.10;10.03;;;9.70;99.90;;;;;;4443678;28;658038;-69
2021/11/21 09:09:26;;;;;;;16.40;9.17;;;9.80;99.90;;;;;;4442466;28;658081;-69
2021/11/21 09:12:14;;;;;;;16.43;9.47;;;10.00;99.90;;;;;;4462013;28;656749;-68
2021/11/21 09:15:02;;;;;;;14.70;8.63;;;10.30;99.90;;;;;;4443542;28;657735;-68
2021/11/21 09:17:51;;;;;;;16.27;9.25;;;10.40;99.90;;;;;;4458668;28;658289;-68
2021/11/21 09:20:39;;;;;;;17.10;9.23;;;10.10;99.90;;;;;;4439306;28;658634;-68
2021/11/21 09:23:28;;;;;;;20.17;10.53;;;9.80;99.90;;;;;;4442169;28;657786;-68
2021/11/21 09:26:16;;;;;;;15.43;8.63;;;9.60;99.90;;;;;;4445499;28;658016;-69
2021/11/21 09:29:04;;;;;;;16.67;9.00;;;9.20;99.90;;;;;;4462975;28;656715;-68
2021/11/21 09:31:51;;;;;;;15.97;9.63;;;9.10;99.90;;;;;;4445408;28;656601;-69
2021/11/21 09:34:39;;;;;;;15.83;7.97;;;9.40;99.90;;;;;;4464356;28;657152;-69
2021/11/21 09:37:27;;;;;;;16.60;9.90;;;9.50;99.90;;;;;;4443066;28;656353;-69
2021/11/21 09:40:16;;;;;;;18.40;8.93;;;9.50;99.90;;;;;;4464005;28;656769;-68
2021/11/21 09:43:04;;;;;;;17.07;8.67;;;9.30;99.90;;;;;;4440204;28;657784;-68
2021/11/21 09:45:51;;;;;;;15.53;8.97;;;9.10;99.90;;;;;;4443432;28;656392;-69
2021/11/21 09:48:39;;;;;;;16.33;8.23;;;8.90;99.90;;;;;;4464206;28;656744;-68
2021/11/21 09:51:27;;;;;;;14.33;8.33;;;9.00;99.90;;;;;;4438979;28;656405;-69
2021/11/21 09:54:15;;;;;;;18.27;9.50;;;9.00;99.90;;;;;;4464186;28;656814;-68
2021/11/21 09:57:05;;;;;;;19.73;8.77;;;9.00;99.90;;;;;;4443028;28;657484;-68
2021/11/21 09:59:56;;;;;;;20.83;9.67;;;9.00;99.90;;;;;;4441502;28;657096;-69
2021/11/21 10:02:45;;;;;;;12.23;7.73;;;9.30;99.90;;;;;;4437548;28;657990;-68
2021/11/21 10:05:33;;;;;;;13.27;7.30;;;9.70;99.90;;;;;;4440320;28;658014;-70
2021/11/21 10:08:22;;;;;;;12.03;6.97;;;9.50;99.90;;;;;;4444292;28;656464;-69
2021/11/21 10:11:10;;;;;;;12.47;7.40;;;9.60;99.90;;;;;;4463489;28;657029;-69
2021/11/21 10:14:05;;;;;;;10.87;6.20;;;9.90;99.90;;;;;;4439753;28;657534;-68
2021/11/21 10:16:53;;;;;;;14.30;6.97;;;10.10;99.90;;;;;;4418562;28;657346;-69
2021/11/21 10:19:41;;;;;;;11.47;6.67;;;10.30;99.90;;;;;;4456503;28;658016;-68
2021/11/21 10:22:42;;;;;;;10.38;6.65;;;10.30;99.90;;;;;;4462908;28;658061;-68
2021/11/21 10:25:48;;;;;;;12.17;6.33;;;10.20;99.90;;;;;;4440348;28;657850;-69
2021/11/21 10:28:36;;;;;;;10.97;6.10;;;10.30;99.90;;;;;;4431619;28;657141;-69
2021/11/21 10:31:25;;;;;;;16.30;7.07;;;10.50;99.90;;;;;;4466244;28;657632;-68
2021/11/21 10:34:13;;;;;;;13.03;7.47;;;10.40;99.90;;;;;;4443523;28;658626;-68
2021/11/21 10:37:08;;;;;;;13.13;7.10;;;10.30;99.90;;;;;;4445250;28;657239;-69
2021/11/21 10:39:59;;;;;;;11.20;7.03;;;10.20;99.90;;;;;;4424029;28;658213;-69
2021/11/21 10:42:48;;;;;;;12.10;7.03;;;10.10;99.90;;;;;;4447005;28;658328;-68
2021/11/21 10:45:36;;;;;;;11.23;6.77;;;10.20;99.90;;;;;;4449096;28;657520;-69
2021/11/21 10:48:28;;;;;;;15.30;7.63;;;10.50;99.90;;;;;;4468726;28;658181;-68
2021/11/21 10:51:19;;;;;;;13.00;6.43;;;11.10;99.90;;;;;;4422059;28;657814;-69
2021/11/21 10:54:18;;;;;;;9.87;4.33;;;11.40;99.90;;;;;;4443646;28;657854;-69
2021/11/21 10:57:07;;;;;;;11.63;6.37;;;12.00;99.90;;;;;;4440391;28;656877;-69
2021/11/21 10:59:58;;;;;;;10.07;6.23;;;12.10;99.90;;;;;;4464203;28;657732;-69
2021/11/21 11:02:46;;;;;;;10.93;6.73;;;12.80;99.90;;;;;;4420500;28;658369;-69
2021/11/21 11:05:35;;;;;;;12.30;6.67;;;13.30;99.90;;;;;;4463296;28;657471;-69
2021/11/21 11:08:25;;;;;;;10.63;6.87;;;13.10;99.90;;;;;;4446584;28;658398;-69
2021/11/21 11:11:13;;;;;;;10.83;6.47;;;13.00;99.90;;;;;;4436498;28;658646;-69
2021/11/21 11:14:01;;;;;;;10.87;6.50;;;12.90;99.90;;;;;;4439212;28;658434;-68
2021/11/21 11:16:50;;;;;;;12.45;6.88;;;12.40;99.90;;;;;;4463101;28;658763;-69
2021/11/21 11:19:38;;;;;;;9.67;5.70;;;12.00;99.90;;;;;;4440659;28;659321;-68
2021/11/21 11:22:27;;;;;;;13.67;6.93;;;11.80;99.90;;;;;;4456125;28;656600;-69
2021/11/21 11:25:21;;;;;;;10.47;6.13;;;12.00;99.90;;;;;;4464359;28;658288;-69
2021/11/21 11:28:10;;;;;;;10.80;6.70;;;12.60;99.90;;;;;;4442664;28;658545;-69
2021/11/21 11:31:02;;;;;;;10.27;5.90;;;12.90;99.90;;;;;;4439335;28;658238;-68
2021/11/21 11:33:52;;;;;;;14.37;7.40;;;13.10;99.90;;;;;;4437283;28;657685;-69
2021/11/21 11:36:40;;;;;;;12.93;6.40;;;13.40;99.90;;;;;;4464575;28;657382;-68
2021/11/21 11:39:38;;;;;;;12.17;6.60;;;13.80;99.90;;;;;;4440354;28;658772;-68
2021/11/21 11:42:36;;;;;;;12.83;7.37;;;13.50;99.90;;;;;;4421138;28;658260;-69
2021/11/21 11:45:41;;;;;;;11.70;7.30;;;14.00;99.90;;;;;;4440329;28;657795;-68
2021/11/21 11:48:35;;;;;;;11.73;6.50;;;14.20;99.90;;;;;;4439163;28;657882;-69
2021/11/21 11:51:50;;;;;;;13.90;6.50;;;15.30;99.90;;;;;;4418208;28;658225;-68
2021/11/21 11:54:40;;;;;;;9.87;6.73;;;16.00;99.90;;;;;;4417868;28;658049;-69
2021/11/21 11:57:34;;;;;;;13.50;7.63;;;15.80;99.90;;;;;;4447262;28;656529;-68
2021/11/21 12:00:27;;;;;;;12.87;7.70;;;15.60;99.90;;;;;;4418241;28;658626;-69
2021/11/21 12:03:47;;;;;;;14.80;6.83;;;15.50;99.70;;;;;;4438938;28;657786;-69
2021/11/21 12:06:37;;;;;;;12.23;7.77;;;15.00;99.20;;;;;;4440775;28;658053;-69
2021/11/21 12:09:25;;;;;;;12.13;7.23;;;15.30;99.90;;;;;;4438345;28;657926;-69
2021/11/21 12:12:17;;;;;;;15.60;7.70;;;14.40;99.90;;;;;;4441075;28;659122;-68
2021/11/21 12:15:23;;;;;;;13.67;7.10;;;15.20;99.90;;;;;;4439314;28;658162;-68
2021/11/21 12:18:11;;;;;;;12.17;7.10;;;15.70;97.00;;;;;;4423141;28;657297;-69
2021/11/21 12:20:59;;;;;;;12.13;7.07;;;15.90;96.40;;;;;;4466685;28;658364;-68
2021/11/21 12:24:00;;;;;;;10.70;6.90;;;15.70;96.30;;;;;;4441352;28;658121;-68
2021/11/21 12:26:48;;;;;;;10.73;6.63;;;15.00;96.50;;;;;;4414754;28;658345;-69
2021/11/21 12:29:37;;;;;;;13.73;8.23;;;15.50;96.40;;;;;;4447074;28;658369;-69
2021/11/21 12:32:28;;;;;;;14.77;9.23;;;15.00;98.00;;;;;;4463741;28;657398;-69
2021/11/21 12:35:22;;;;;;;15.60;8.90;;;14.10;99.30;;;;;;4441530;28;658100;-68
2021/11/21 12:38:35;;;;;;;15.53;9.50;;;13.20;99.90;;;;;;4439277;28;657563;-68
2021/11/21 12:41:23;;;;;;;17.67;8.93;;;13.60;99.90;;;;;;4413732;28;657865;-69
2021/11/21 12:44:27;;;;;;;13.73;7.53;;;14.90;99.90;;;;;;4460041;28;657414;-69
2021/11/21 12:47:16;;;;;;;13.83;8.87;;;15.50;97.80;;;;;;4435658;28;657805;-68
2021/11/21 12:50:04;;;;;;;15.37;9.30;;;15.20;97.30;;;;;;4442564;28;658190;-69
2021/11/21 12:52:54;;;;;;;14.93;8.80;;;14.20;99.40;;;;;;4434420;28;658273;-69
2021/11/21 12:55:43;;;;;;;16.33;9.80;;;13.00;99.90;;;;;;4443239;28;657785;-69
2021/11/21 12:58:32;;;;;;;16.83;8.73;;;12.00;99.90;;;;;;4446114;28;657367;-68
2021/11/21 13:01:20;;;;;;;15.37;9.20;;;11.70;99.90;;;;;;4465572;28;657702;-68
2021/11/21 13:04:09;;;;;;;15.63;9.60;;;11.50;99.90;;;;;;4442389;28;658700;-68
2021/11/21 13:06:57;;;;;;;19.20;9.70;;;11.60;99.90;;;;;;4446762;28;657348;-68
2021/11/21 13:09:44;;;;;;;19.20;10.07;;;11.20;99.90;;;;;;4464986;28;657195;-68
2021/11/21 13:12:33;;;;;;;20.33;10.60;;;10.90;99.90;;;;;;4445335;28;659007;-68
2021/11/21 13:15:22;;;;;;;19.50;10.57;;;10.90;99.90;;;;;;4451918;28;659157;-68
2021/11/21 13:18:12;;;;;;;20.23;11.10;;;10.70;99.90;;;;;;4464069;28;658880;-68
2021/11/21 13:21:06;;;;;;;18.07;10.30;;;10.40;99.90;;;;;;4441488;28;659244;-68
2021/11/21 13:23:54;;;;;;;16.90;9.43;;;10.10;99.90;;;;;;4439757;28;659400;-68
2021/11/21 13:26:43;;;;;;;20.60;10.60;;;9.90;99.90;;;;;;4446385;28;657409;-68
2021/11/21 13:29:32;;;;;;;18.83;10.23;;;9.80;99.90;;;;;;4446327;28;657494;-68
2021/11/21 13:32:21;;;;;;;20.27;11.30;;;9.60;99.90;;;;;;4462520;28;658116;-68
2021/11/21 13:35:18;;;;;;;20.80;10.67;;;9.40;99.90;;;;;;4442451;28;658301;-68
2021/11/21 13:38:08;;;;;;;19.13;10.33;;;9.30;99.90;;;;;;4408178;28;657931;-68
2021/11/21 13:40:56;;;;;;;23.97;11.07;;;9.20;99.90;;;;;;4447716;28;657740;-69
2021/11/21 13:43:45;;;;;;;19.40;11.53;;;9.10;99.90;;;;;;4465076;28;658721;-68
2021/11/21 13:46:34;;;;;;;22.37;11.73;;;9.00;99.90;;;;;;4442445;28;658008;-68
2021/11/21 13:49:22;;;;;;;25.27;12.83;;;8.90;99.90;;;;;;4446666;28;658075;-68
2021/11/21 13:52:11;;;;;;;23.03;11.63;;;8.80;99.90;;;;;;4455097;28;657460;-68
2021/11/21 13:55:05;;;;;;;29.00;14.57;;;8.80;99.90;;;;;;4465525;28;658095;-68
2021/11/21 13:57:54;;;;;;;30.73;14.07;;;8.70;99.90;;;;;;4417049;28;658411;-68
2021/11/21 14:00:42;;;;;;;26.77;13.93;;;8.70;99.90;;;;;;4434672;28;657848;-68
2021/11/21 14:03:37;;;;;;;29.60;14.10;;;8.60;99.90;;;;;;4464794;28;657807;-68
2021/11/21 14:06:33;;;;;;;25.30;13.43;;;8.60;99.90;;;;;;4439091;28;657729;-68
2021/11/21 14:09:21;;;;;;;31.57;15.90;;;8.60;99.90;;;;;;4422953;28;657619;-68
2021/11/21 14:12:10;;;;;;;29.77;15.07;;;8.50;99.90;;;;;;4464688;28;658222;-68
2021/11/21 14:15:09;;;;;;;30.63;15.47;;;8.40;99.90;;;;;;4442356;28;658707;-69
2021/11/21 14:17:59;;;;;;;28.83;14.03;;;8.40;99.90;;;;;;4440325;28;657679;-68
2021/11/21 14:20:50;;;;;;;33.53;15.80;;;8.40;99.90;;;;;;4442102;28;658393;-68